createdAt,value
2017-11-22T00:00:34.120Z,16.6
2017-11-22T00:01:35.758Z,17.4
2017-11-22T00:02:37.405Z,17.5
2017-11-22T00:03:39.061Z,15.1
2017-11-22T00:04:40.727Z,16.9
2017-11-22T00:05:42.391Z,17.2
2017-11-22T00:06:44.034Z,17.1
2017-11-22T00:07:45.708Z,16.8
2017-11-22T00:08:47.376Z,15.2
2017-11-22T00:09:49.022Z,16.5
2017-11-22T00:10:50.664Z,16.1
2017-11-22T00:11:52.317Z,17.2
2017-11-22T00:12:54.014Z,16.1
2017-11-22T00:13:55.670Z,16.3
2017-11-22T00:14:57.319Z,14.4
2017-11-22T00:15:58.977Z,15.4
2017-11-22T00:17:00.643Z,15.2
2017-11-22T00:18:02.296Z,15.6
2017-11-22T00:19:03.936Z,14.7
2017-11-22T00:20:05.607Z,15.6
2017-11-22T00:21:07.257Z,14.8
2017-11-22T00:22:08.918Z,16.2
2017-11-22T00:23:10.571Z,16.0
2017-11-22T00:24:12.222Z,16.4
2017-11-22T00:25:13.877Z,16.4
2017-11-22T00:26:15.524Z,16.7
2017-11-22T00:27:17.171Z,17.0
2017-11-22T00:28:18.827Z,15.8
2017-11-22T00:29:20.471Z,16.6
2017-11-22T00:30:22.128Z,15.5
2017-11-22T00:31:23.776Z,16.6
2017-11-22T00:32:25.417Z,15.6
2017-11-22T00:33:27.067Z,16.7
2017-11-22T00:34:28.714Z,15.7
2017-11-22T00:35:30.368Z,16.3
2017-11-22T00:36:32.019Z,17.2
2017-11-22T00:37:33.678Z,17.3
2017-11-22T00:38:35.318Z,16.4
2017-11-22T00:39:36.963Z,15.9
2017-11-22T00:40:39.517Z,17.9
2017-11-22T00:41:41.166Z,17.8
2017-11-22T00:42:42.811Z,16.8
2017-11-22T00:43:44.489Z,16.7
2017-11-22T00:44:46.136Z,16.6
2017-11-22T00:45:47.801Z,16.6
2017-11-22T00:46:49.435Z,16.1
2017-11-22T00:47:51.082Z,15.1
2017-11-22T00:48:52.737Z,15.7
2017-11-22T00:49:54.387Z,16.1
2017-11-22T00:50:56.033Z,15.4
2017-11-22T00:51:57.681Z,16.0
2017-11-22T00:52:59.324Z,16.6
2017-11-22T00:54:01.029Z,16.2
2017-11-22T00:55:02.665Z,14.6
2017-11-22T00:56:04.316Z,15.2
2017-11-22T00:57:05.962Z,15.0
2017-11-22T00:58:07.603Z,15.9
2017-11-22T00:59:09.262Z,16.1
2017-11-22T01:00:10.921Z,16.8
2017-11-22T01:01:12.575Z,15.1
2017-11-22T01:02:14.223Z,16.0
2017-11-22T01:03:15.876Z,14.5
2017-11-22T01:04:17.524Z,14.4
2017-11-22T01:05:19.171Z,14.5
2017-11-22T01:06:20.827Z,16.5
2017-11-22T01:07:22.473Z,15.2
2017-11-22T01:08:24.128Z,15.8
2017-11-22T01:09:25.777Z,16.9
2017-11-22T01:10:27.424Z,15.7
2017-11-22T01:11:29.074Z,16.7
2017-11-22T01:12:30.727Z,16.0
2017-11-22T01:13:32.384Z,17.0
2017-11-22T01:14:34.037Z,16.6
2017-11-22T01:15:35.683Z,17.2
2017-11-22T01:16:37.352Z,16.8
2017-11-22T01:17:39.001Z,16.6
2017-11-22T01:18:40.646Z,15.9
2017-11-22T01:19:42.302Z,16.1
2017-11-22T01:20:43.957Z,15.6
2017-11-22T01:21:45.604Z,16.2
2017-11-22T01:22:47.250Z,15.6
2017-11-22T01:23:48.911Z,14.6
2017-11-22T01:24:50.555Z,15.6
2017-11-22T01:25:52.218Z,15.6
2017-11-22T01:26:53.866Z,15.6
2017-11-22T01:27:55.510Z,16.3
2017-11-22T01:28:57.158Z,16.7
2017-11-22T01:29:58.806Z,16.5
2017-11-22T01:31:00.468Z,15.5
2017-11-22T01:32:02.119Z,16.5
2017-11-22T01:33:03.780Z,17.0
2017-11-22T01:34:05.433Z,17.1
2017-11-22T01:35:07.083Z,16.6
2017-11-22T01:36:08.740Z,16.6
2017-11-22T01:37:10.390Z,16.6
2017-11-22T01:38:12.090Z,17.2
2017-11-22T01:39:13.744Z,16.4
2017-11-22T01:40:15.393Z,16.9
2017-11-22T01:41:17.049Z,17.0
2017-11-22T01:42:18.694Z,17.0
2017-11-22T01:43:20.345Z,16.3
2017-11-22T01:44:21.990Z,16.2
2017-11-22T01:45:23.648Z,17.7
2017-11-22T01:46:25.313Z,16.4
2017-11-22T01:47:26.967Z,16.7
2017-11-22T01:48:28.599Z,18.2
2017-11-22T01:49:30.257Z,17.0
2017-11-22T01:50:31.918Z,17.1
2017-11-22T01:51:33.558Z,16.9
2017-11-22T01:52:35.211Z,16.5
2017-11-22T01:53:36.876Z,15.9
2017-11-22T01:54:38.542Z,17.2
2017-11-22T01:55:40.198Z,15.6
2017-11-22T01:56:41.857Z,16.5
2017-11-22T01:57:43.511Z,15.9
2017-11-22T01:58:45.170Z,16.9
2017-11-22T01:59:46.819Z,15.8
2017-11-22T02:00:48.466Z,15.7
2017-11-22T02:01:50.112Z,15.5
2017-11-22T02:02:51.763Z,15.8
2017-11-22T02:03:53.414Z,15.8
2017-11-22T02:04:55.057Z,15.3
2017-11-22T02:05:56.726Z,16.4
2017-11-22T02:06:58.370Z,16.5
2017-11-22T02:08:00.025Z,17.4
2017-11-22T02:09:01.675Z,17.1
2017-11-22T02:10:03.340Z,16.3
2017-11-22T02:11:04.987Z,15.9
2017-11-22T02:12:06.647Z,16.3
2017-11-22T02:13:08.288Z,15.6
2017-11-22T02:14:09.936Z,16.3
2017-11-22T02:15:11.584Z,17.1
2017-11-22T02:16:13.241Z,16.5
2017-11-22T02:17:14.890Z,15.6
2017-11-22T02:18:16.539Z,16.9
2017-11-22T02:19:18.191Z,16.3
2017-11-22T02:20:19.842Z,16.6
2017-11-22T02:21:21.497Z,16.3
2017-11-22T02:22:23.145Z,16.2
2017-11-22T02:23:24.795Z,17.9
2017-11-22T02:24:26.533Z,14.9
2017-11-22T02:25:28.179Z,16.1
2017-11-22T02:26:29.828Z,16.1
2017-11-22T02:27:31.480Z,16.5
2017-11-22T02:28:33.123Z,16.3
2017-11-22T02:29:34.775Z,16.4
2017-11-22T02:30:36.424Z,16.5
2017-11-22T02:31:38.073Z,16.5
2017-11-22T02:32:39.739Z,15.9
2017-11-22T02:33:41.380Z,14.7
2017-11-22T02:34:43.047Z,14.5
2017-11-22T02:35:44.700Z,14.9
2017-11-22T02:36:46.359Z,15.5
2017-11-22T02:37:48.003Z,16.5
2017-11-22T02:38:49.667Z,15.9
2017-11-22T02:39:51.309Z,16.5
2017-11-22T02:40:52.956Z,15.3
2017-11-22T02:41:54.614Z,15.5
2017-11-22T02:42:56.517Z,15.6
2017-11-22T02:43:58.187Z,15.4
2017-11-22T02:44:59.834Z,15.2
2017-11-22T02:46:01.494Z,16.0
2017-11-22T02:47:03.146Z,15.9
2017-11-22T02:48:04.809Z,14.9
2017-11-22T02:49:06.461Z,15.3
2017-11-22T02:50:08.115Z,15.1
2017-11-22T02:51:09.759Z,16.4
2017-11-22T02:52:11.422Z,15.3
2017-11-22T02:53:13.072Z,15.1
2017-11-22T02:54:14.731Z,14.0
2017-11-22T02:55:16.390Z,14.7
2017-11-22T02:56:18.037Z,13.9
2017-11-22T02:57:19.686Z,15.1
2017-11-22T02:58:21.341Z,14.4
2017-11-22T02:59:22.995Z,14.6
2017-11-22T03:00:24.646Z,14.3
2017-11-22T03:01:26.295Z,13.7
2017-11-22T03:02:27.945Z,14.0
2017-11-22T03:03:29.584Z,14.2
2017-11-22T03:04:31.234Z,14.3
2017-11-22T03:05:32.883Z,14.4
2017-11-22T03:06:34.539Z,13.4
2017-11-22T03:07:36.187Z,13.7
2017-11-22T03:08:37.852Z,12.4
2017-11-22T03:09:39.496Z,12.8
2017-11-22T03:10:41.149Z,12.7
2017-11-22T03:11:42.801Z,13.9
2017-11-22T03:12:44.455Z,12.6
2017-11-22T03:13:46.112Z,13.5
2017-11-22T03:14:47.758Z,12.5
2017-11-22T03:15:49.403Z,12.6
2017-11-22T03:16:51.071Z,12.1
2017-11-22T03:17:52.724Z,12.9
2017-11-22T03:18:54.371Z,13.1
2017-11-22T03:19:56.012Z,12.5
2017-11-22T03:20:57.661Z,12.7
2017-11-22T03:21:59.313Z,12.4
2017-11-22T03:23:00.976Z,13.0
2017-11-22T03:24:02.621Z,12.8
2017-11-22T03:25:04.266Z,12.3
2017-11-22T03:26:05.913Z,13.0
2017-11-22T03:27:07.578Z,12.1
2017-11-22T03:28:09.226Z,13.0
2017-11-22T03:29:10.878Z,13.1
2017-11-22T03:30:12.538Z,12.8
2017-11-22T03:31:14.179Z,12.2
2017-11-22T03:32:15.827Z,12.8
2017-11-22T03:33:17.483Z,10.8
2017-11-22T03:34:19.150Z,11.4
2017-11-22T03:35:20.809Z,12.3
2017-11-22T03:36:22.461Z,13.3
2017-11-22T03:37:24.123Z,12.2
2017-11-22T03:38:25.809Z,12.3
2017-11-22T03:39:27.459Z,13.3
2017-11-22T03:40:29.115Z,13.1
2017-11-22T03:41:30.768Z,12.3
2017-11-22T03:42:32.413Z,12.1
2017-11-22T03:43:34.064Z,12.9
2017-11-22T03:44:35.716Z,12.3
2017-11-22T03:45:37.370Z,12.9
2017-11-22T03:46:39.026Z,12.9
2017-11-22T03:47:40.675Z,13.3
2017-11-22T03:48:42.324Z,13.1
2017-11-22T03:49:43.985Z,12.5
2017-11-22T03:50:45.630Z,13.1
2017-11-22T03:51:47.318Z,13.3
2017-11-22T03:52:48.963Z,13.2
2017-11-22T03:53:50.612Z,13.2
2017-11-22T03:54:52.266Z,12.3
2017-11-22T03:55:53.921Z,11.9
2017-11-22T03:56:55.569Z,12.6
2017-11-22T03:57:57.210Z,12.5
2017-11-22T03:58:58.871Z,13.1
2017-11-22T04:00:00.518Z,12.4
2017-11-22T04:01:02.166Z,12.0
2017-11-22T04:02:03.812Z,12.1
2017-11-22T04:03:05.463Z,13.0
2017-11-22T04:04:07.113Z,12.5
2017-11-22T04:05:08.768Z,12.7
2017-11-22T04:06:10.427Z,13.3
2017-11-22T04:07:12.062Z,12.9
2017-11-22T04:08:13.713Z,13.5
2017-11-22T04:09:15.360Z,13.8
2017-11-22T04:10:17.013Z,13.6
2017-11-22T04:11:18.656Z,12.3
2017-11-22T04:12:20.306Z,13.4
2017-11-22T04:13:21.957Z,13.2
2017-11-22T04:14:23.604Z,11.8
2017-11-22T04:15:25.246Z,12.8
2017-11-22T04:16:26.897Z,12.5
2017-11-22T04:17:28.556Z,13.2
2017-11-22T04:18:30.202Z,14.1
2017-11-22T04:19:31.854Z,13.6
2017-11-22T04:20:33.499Z,14.0
2017-11-22T04:21:35.142Z,14.0
2017-11-22T04:22:36.794Z,13.8
2017-11-22T04:23:38.441Z,12.9
2017-11-22T04:24:40.091Z,12.9
2017-11-22T04:25:41.759Z,13.9
2017-11-22T04:26:43.404Z,12.7
2017-11-22T04:27:45.067Z,11.6
2017-11-22T04:28:46.712Z,12.4
2017-11-22T04:29:48.358Z,12.8
2017-11-22T04:30:50.003Z,12.3
2017-11-22T04:31:51.655Z,12.7
2017-11-22T04:32:53.309Z,13.3
2017-11-22T04:33:54.966Z,14.0
2017-11-22T04:34:56.615Z,14.0
2017-11-22T04:35:58.272Z,13.5
2017-11-22T04:36:59.914Z,13.0
2017-11-22T04:38:01.582Z,11.5
2017-11-22T04:39:03.223Z,12.9
2017-11-22T04:40:04.875Z,12.6
2017-11-22T04:41:06.535Z,12.4
2017-11-22T04:42:08.192Z,13.0
2017-11-22T04:43:09.888Z,13.6
2017-11-22T04:44:11.537Z,12.9
2017-11-22T04:45:13.198Z,13.4
2017-11-22T04:46:14.849Z,13.8
2017-11-22T04:47:16.500Z,12.4
2017-11-22T04:48:18.151Z,14.6
2017-11-22T04:49:19.807Z,12.6
2017-11-22T04:50:21.463Z,12.5
2017-11-22T04:51:23.102Z,13.1
2017-11-22T04:52:24.746Z,12.2
2017-11-22T04:53:26.394Z,13.5
2017-11-22T04:54:28.062Z,12.6
2017-11-22T04:55:29.703Z,14.8
2017-11-22T04:56:31.352Z,14.0
2017-11-22T04:57:33.007Z,13.8
2017-11-22T04:58:34.651Z,15.9
2017-11-22T04:59:36.316Z,19.0
2017-11-22T05:00:37.962Z,15.3
2017-11-22T05:01:39.626Z,13.8
2017-11-22T05:02:41.276Z,15.6
2017-11-22T05:03:42.934Z,17.5
2017-11-22T05:04:44.628Z,17.3
2017-11-22T05:05:46.275Z,14.8
2017-11-22T05:06:47.927Z,14.7
2017-11-22T05:07:49.585Z,12.7
2017-11-22T05:08:51.240Z,13.1
2017-11-22T05:09:52.906Z,12.7
2017-11-22T05:10:54.552Z,13.5
2017-11-22T05:11:56.243Z,13.7
2017-11-22T05:12:57.906Z,13.9
2017-11-22T05:13:59.566Z,12.8
2017-11-22T05:15:01.206Z,15.9
2017-11-22T05:16:02.864Z,15.2
2017-11-22T05:17:04.999Z,13.1
2017-11-22T05:18:06.694Z,14.0
2017-11-22T05:19:08.338Z,13.4
2017-11-22T05:20:09.995Z,12.2
2017-11-22T05:21:11.646Z,12.8
2017-11-22T05:22:13.294Z,13.1
2017-11-22T05:23:14.949Z,13.1
2017-11-22T05:24:16.596Z,12.9
2017-11-22T05:25:18.243Z,12.1
2017-11-22T05:26:19.937Z,13.0
2017-11-22T05:27:21.598Z,14.4
2017-11-22T05:28:23.255Z,14.5
2017-11-22T05:29:24.911Z,15.1
2017-11-22T05:30:26.584Z,13.3
2017-11-22T05:31:28.241Z,12.9
2017-11-22T05:32:29.894Z,12.8
2017-11-22T05:33:31.536Z,13.1
2017-11-22T05:34:33.248Z,14.5
2017-11-22T05:35:34.906Z,14.0
2017-11-22T05:36:36.563Z,13.8
2017-11-22T05:37:38.286Z,13.1
2017-11-22T05:38:39.956Z,12.9
2017-11-22T05:39:41.618Z,14.6
2017-11-22T05:40:43.262Z,14.1
2017-11-22T05:41:44.917Z,12.5
2017-11-22T05:42:46.567Z,12.5
2017-11-22T05:43:48.223Z,13.4
2017-11-22T05:44:49.885Z,12.1
2017-11-22T05:45:51.536Z,12.9
2017-11-22T05:46:53.188Z,13.0
2017-11-22T05:47:54.838Z,13.4
2017-11-22T05:48:56.492Z,12.2
2017-11-22T05:49:58.217Z,13.4
2017-11-22T05:50:59.889Z,11.7
2017-11-22T05:52:01.593Z,13.0
2017-11-22T05:53:03.247Z,14.1
2017-11-22T05:54:04.934Z,14.3
2017-11-22T05:55:06.637Z,12.6
2017-11-22T05:56:08.298Z,13.8
2017-11-22T05:57:13.297Z,13.1
2017-11-22T05:58:14.948Z,13.2
2017-11-22T05:59:16.602Z,13.7
2017-11-22T06:00:18.256Z,12.1
2017-11-22T06:01:19.900Z,12.4
2017-11-22T06:02:21.564Z,11.8
2017-11-22T06:03:23.208Z,12.7
2017-11-22T06:04:24.863Z,12.8
2017-11-22T06:05:26.509Z,13.8
2017-11-22T06:06:28.290Z,13.7
2017-11-22T06:07:29.938Z,13.1
2017-11-22T06:08:35.096Z,15.1
2017-11-22T06:09:36.738Z,16.7
2017-11-22T06:10:38.660Z,13.8
2017-11-22T06:11:40.305Z,13.7
2017-11-22T06:12:41.955Z,13.3
2017-11-22T06:13:43.621Z,12.7
2017-11-22T06:14:47.095Z,13.8
2017-11-22T06:15:48.746Z,12.6
2017-11-22T06:16:50.439Z,13.6
2017-11-22T06:17:52.098Z,14.0
2017-11-22T06:18:53.747Z,13.2
2017-11-22T06:19:55.434Z,13.9
2017-11-22T06:20:57.086Z,13.9
2017-11-22T06:21:58.733Z,14.3
2017-11-22T06:23:00.396Z,12.4
2017-11-22T06:24:02.048Z,13.8
2017-11-22T06:25:03.699Z,13.3
2017-11-22T06:26:05.354Z,14.2
2017-11-22T06:27:07.039Z,15.3
2017-11-22T06:28:08.705Z,15.1
2017-11-22T06:29:10.346Z,14.7
2017-11-22T06:30:12.000Z,14.1
2017-11-22T06:31:13.657Z,14.9
2017-11-22T06:32:15.320Z,13.9
2017-11-22T06:33:16.954Z,15.0
2017-11-22T06:34:18.604Z,14.0
2017-11-22T06:35:20.254Z,13.4
2017-11-22T06:36:21.910Z,13.4
2017-11-22T06:37:23.619Z,15.1
2017-11-22T06:38:25.270Z,14.6
2017-11-22T06:39:26.918Z,14.1
2017-11-22T06:40:28.603Z,14.6
2017-11-22T06:41:30.272Z,16.5
2017-11-22T06:42:31.923Z,14.7
2017-11-22T06:43:33.592Z,14.7
2017-11-22T06:44:35.243Z,14.9
2017-11-22T06:45:36.881Z,14.5
2017-11-22T06:46:38.537Z,13.6
2017-11-22T06:47:40.195Z,14.7
2017-11-22T06:48:41.847Z,11.8
2017-11-22T06:49:43.505Z,13.5
2017-11-22T06:50:45.211Z,14.5
2017-11-22T06:51:46.865Z,14.5
2017-11-22T06:52:48.523Z,13.5
2017-11-22T06:53:50.148Z,15.1
2017-11-22T06:54:51.789Z,16.3
2017-11-22T06:55:53.434Z,15.5
2017-11-22T06:56:55.083Z,16.6
2017-11-22T06:57:56.750Z,15.0
2017-11-22T06:58:58.413Z,14.5
2017-11-22T07:00:00.073Z,14.9
2017-11-22T07:01:01.725Z,15.2
2017-11-22T07:02:03.549Z,15.3
2017-11-22T07:03:05.217Z,14.2
2017-11-22T07:04:06.863Z,14.3
2017-11-22T07:05:08.545Z,13.6
2017-11-22T07:06:10.178Z,13.7
2017-11-22T07:07:11.830Z,13.9
2017-11-22T07:08:13.501Z,14.5
2017-11-22T07:09:15.149Z,14.2
2017-11-22T07:10:16.804Z,13.6
2017-11-22T07:11:18.464Z,13.9
2017-11-22T07:12:20.123Z,13.9
2017-11-22T07:13:21.779Z,15.7
2017-11-22T07:14:23.432Z,16.0
2017-11-22T07:15:25.092Z,15.0
2017-11-22T07:16:27.003Z,17.0
2017-11-22T07:17:28.651Z,15.6
2017-11-22T07:18:30.312Z,15.2
2017-11-22T07:19:32.034Z,15.6
2017-11-22T07:20:33.692Z,15.3
2017-11-22T07:21:35.353Z,15.3
2017-11-22T07:22:37.135Z,15.2
2017-11-22T07:23:38.785Z,15.8
2017-11-22T07:24:40.448Z,14.6
2017-11-22T07:25:42.095Z,13.9
2017-11-22T07:26:43.750Z,15.8
2017-11-22T07:27:45.411Z,14.9
2017-11-22T07:28:47.070Z,15.3
2017-11-22T07:29:48.748Z,16.0
2017-11-22T07:30:50.402Z,15.0
2017-11-22T07:31:52.068Z,14.4
2017-11-22T07:32:53.728Z,13.9
2017-11-22T07:33:55.455Z,15.1
2017-11-22T07:34:57.099Z,14.0
2017-11-22T07:35:59.241Z,15.0
2017-11-22T07:37:00.840Z,15.3
2017-11-22T07:38:03.884Z,14.6
2017-11-22T07:39:08.207Z,15.1
2017-11-22T07:40:10.028Z,13.9
2017-11-22T07:41:11.696Z,14.9
2017-11-22T07:42:13.447Z,15.1
2017-11-22T07:43:15.683Z,14.6
2017-11-22T07:44:18.202Z,14.2
2017-11-22T07:45:19.850Z,15.5
2017-11-22T07:46:21.550Z,13.9
2017-11-22T07:47:23.206Z,14.6
2017-11-22T07:48:24.875Z,15.3
2017-11-22T07:49:26.537Z,15.3
2017-11-22T07:50:28.222Z,14.9
2017-11-22T07:51:29.874Z,15.2
2017-11-22T07:52:31.535Z,15.1
2017-11-22T07:53:33.210Z,14.4
2017-11-22T07:54:34.862Z,14.6
2017-11-22T07:55:36.522Z,14.4
2017-11-22T07:56:38.182Z,15.4
2017-11-22T07:57:39.833Z,15.9
2017-11-22T07:58:41.492Z,14.4
2017-11-22T07:59:43.157Z,13.8
2017-11-22T08:00:44.849Z,14.1
2017-11-22T08:01:46.510Z,14.2
2017-11-22T08:02:48.171Z,14.3
2017-11-22T08:03:49.827Z,14.4
2017-11-22T08:04:51.481Z,14.6
2017-11-22T08:05:53.138Z,14.9
2017-11-22T08:06:54.812Z,15.5
2017-11-22T08:07:56.616Z,15.3
2017-11-22T08:08:58.253Z,15.1
2017-11-22T08:09:59.916Z,14.7
2017-11-22T08:11:01.566Z,15.5
2017-11-22T08:12:03.243Z,15.0
2017-11-22T08:13:04.891Z,14.7
2017-11-22T08:14:06.546Z,15.6
2017-11-22T08:15:08.208Z,15.4
2017-11-22T08:16:09.879Z,14.7
2017-11-22T08:17:11.532Z,14.9
2017-11-22T08:18:13.184Z,15.0
2017-11-22T08:19:14.846Z,14.4
2017-11-22T08:20:16.536Z,14.7
2017-11-22T08:21:18.201Z,13.9
2017-11-22T08:22:19.839Z,14.9
2017-11-22T08:23:21.498Z,15.1
2017-11-22T08:24:23.148Z,15.9
2017-11-22T08:25:24.800Z,16.7
2017-11-22T08:26:26.461Z,15.6
2017-11-22T08:27:28.119Z,15.5
2017-11-22T08:28:29.784Z,15.1
2017-11-22T08:29:31.471Z,15.4
2017-11-22T08:30:33.125Z,15.5
2017-11-22T08:31:34.805Z,15.4
2017-11-22T08:32:36.520Z,15.9
2017-11-22T08:33:38.183Z,15.7
2017-11-22T08:34:39.883Z,16.2
2017-11-22T08:35:41.546Z,16.9
2017-11-22T08:36:43.225Z,15.4
2017-11-22T08:37:44.958Z,14.5
2017-11-22T08:38:46.634Z,15.9
2017-11-22T08:39:48.290Z,16.9
2017-11-22T08:40:49.938Z,16.0
2017-11-22T08:41:51.605Z,16.3
2017-11-22T08:42:53.265Z,16.3
2017-11-22T08:43:54.932Z,16.0
2017-11-22T08:44:56.664Z,17.5
2017-11-22T08:45:58.334Z,17.5
2017-11-22T08:46:59.990Z,17.5
2017-11-22T08:48:01.766Z,17.9
2017-11-22T08:49:03.416Z,17.4
2017-11-22T08:50:05.217Z,19.3
2017-11-22T08:51:06.878Z,18.7
2017-11-22T08:52:08.539Z,19.1
2017-11-22T08:53:10.191Z,19.1
2017-11-22T08:54:11.861Z,19.5
2017-11-22T08:55:13.540Z,19.5
2017-11-22T08:56:15.200Z,21.4
2017-11-22T08:57:16.875Z,19.4
2017-11-22T08:58:18.542Z,19.6
2017-11-22T08:59:20.198Z,20.5
2017-11-22T09:00:21.859Z,19.3
2017-11-22T09:01:23.519Z,19.5
2017-11-22T09:02:25.181Z,17.8
2017-11-22T09:03:26.835Z,18.9
2017-11-22T09:04:28.497Z,18.2
2017-11-22T09:05:30.152Z,17.2
2017-11-22T09:06:31.824Z,18.3
2017-11-22T09:07:33.491Z,17.4
2017-11-22T09:08:35.151Z,18.5
2017-11-22T09:09:36.815Z,20.0
2017-11-22T09:10:38.473Z,18.9
2017-11-22T09:11:40.128Z,21.5
2017-11-22T09:12:41.789Z,20.2
2017-11-22T09:13:43.461Z,18.3
2017-11-22T09:14:45.128Z,19.9
2017-11-22T09:15:46.795Z,20.2
2017-11-22T09:16:48.451Z,20.6
2017-11-22T09:17:50.096Z,21.9
2017-11-22T09:18:51.755Z,19.3
2017-11-22T09:19:53.436Z,19.5
2017-11-22T09:20:55.102Z,18.2
2017-11-22T09:21:56.790Z,20.9
2017-11-22T09:22:58.448Z,19.3
2017-11-22T09:24:00.114Z,17.6
2017-11-22T09:25:01.785Z,16.5
2017-11-22T09:26:03.450Z,18.2
2017-11-22T09:27:05.114Z,17.1
2017-11-22T09:28:06.773Z,17.0
2017-11-22T09:29:08.781Z,18.7
2017-11-22T09:30:10.428Z,18.4
2017-11-22T09:31:12.085Z,18.3
2017-11-22T09:32:13.747Z,18.9
2017-11-22T09:33:15.430Z,19.3
2017-11-22T09:34:17.124Z,19.2
2017-11-22T09:35:18.785Z,19.4
2017-11-22T09:36:20.442Z,19.4
2017-11-22T09:37:22.110Z,20.8
2017-11-22T09:38:23.822Z,20.3
2017-11-22T09:39:25.472Z,19.8
2017-11-22T09:40:27.136Z,19.1
2017-11-22T09:41:28.808Z,19.9
2017-11-22T09:42:30.505Z,20.5
2017-11-22T09:43:32.165Z,20.0
2017-11-22T09:44:33.835Z,20.1
2017-11-22T09:45:35.504Z,18.8
2017-11-22T09:46:37.159Z,18.8
2017-11-22T09:47:38.816Z,19.6
2017-11-22T09:48:40.467Z,18.6
2017-11-22T09:49:42.129Z,19.9
2017-11-22T09:50:43.887Z,19.5
2017-11-22T09:51:45.546Z,18.6
2017-11-22T09:52:47.217Z,18.9
2017-11-22T09:53:48.864Z,20.2
2017-11-22T09:54:50.525Z,20.6
2017-11-22T09:55:52.206Z,20.9
2017-11-22T09:56:53.862Z,19.7
2017-11-22T09:57:55.517Z,20.2
2017-11-22T09:58:57.281Z,20.1
2017-11-22T09:59:58.937Z,20.7
2017-11-22T10:01:00.596Z,20.3
2017-11-22T10:02:02.294Z,20.2
2017-11-22T10:03:03.930Z,19.7
2017-11-22T10:04:05.588Z,21.8
2017-11-22T10:05:07.253Z,20.7
2017-11-22T10:06:09.041Z,19.4
2017-11-22T10:07:10.703Z,18.5
2017-11-22T10:08:12.367Z,19.9
2017-11-22T10:09:14.025Z,18.5
2017-11-22T10:10:15.687Z,20.1
2017-11-22T10:11:17.354Z,20.6
2017-11-22T10:12:19.051Z,21.1
2017-11-22T10:13:20.748Z,21.2
2017-11-22T10:14:22.402Z,20.8
2017-11-22T10:15:24.171Z,21.9
2017-11-22T10:16:25.838Z,18.9
2017-11-22T10:17:27.512Z,20.2
2017-11-22T10:18:29.172Z,21.4
2017-11-22T10:19:30.882Z,20.8
2017-11-22T10:20:32.541Z,20.0
2017-11-22T10:21:34.220Z,18.2
2017-11-22T10:22:35.896Z,18.8
2017-11-22T10:23:37.589Z,18.3
2017-11-22T10:24:39.254Z,18.9
2017-11-22T10:25:40.912Z,20.2
2017-11-22T10:26:42.580Z,18.4
2017-11-22T10:27:44.258Z,19.8
2017-11-22T10:28:45.933Z,18.3
2017-11-22T10:29:47.605Z,16.8
2017-11-22T10:30:49.260Z,18.4
2017-11-22T10:31:50.976Z,18.1
2017-11-22T10:32:52.730Z,19.8
2017-11-22T10:33:54.441Z,17.9
2017-11-22T10:34:56.098Z,18.5
2017-11-22T10:35:57.765Z,19.0
2017-11-22T10:36:59.423Z,20.3
2017-11-22T10:38:01.099Z,17.8
2017-11-22T10:39:02.763Z,19.8
2017-11-22T10:40:04.425Z,19.0
2017-11-22T10:41:06.092Z,20.8
2017-11-22T10:42:07.791Z,21.5
2017-11-22T10:43:09.443Z,23.0
2017-11-22T10:44:11.101Z,18.8
2017-11-22T10:45:12.762Z,18.1
2017-11-22T10:46:14.420Z,17.5
2017-11-22T10:47:16.100Z,16.2
2017-11-22T10:48:17.762Z,16.0
2017-11-22T10:49:19.435Z,17.0
2017-11-22T10:50:21.105Z,16.4
2017-11-22T10:51:22.764Z,16.9
2017-11-22T10:52:24.479Z,16.2
2017-11-22T10:53:26.146Z,15.7
2017-11-22T10:54:27.801Z,18.8
2017-11-22T10:55:29.467Z,17.0
2017-11-22T10:56:31.130Z,17.1
2017-11-22T10:57:32.796Z,17.4
2017-11-22T10:58:34.466Z,16.9
2017-11-22T10:59:36.133Z,16.3
2017-11-22T11:00:37.801Z,17.4
2017-11-22T11:01:39.462Z,16.5
2017-11-22T11:02:41.129Z,16.7
2017-11-22T11:03:42.800Z,16.9
2017-11-22T11:04:44.471Z,16.4
2017-11-22T11:05:46.130Z,16.7
2017-11-22T11:06:47.804Z,15.0
2017-11-22T11:07:49.508Z,15.7
2017-11-22T11:08:51.180Z,16.6
2017-11-22T11:09:52.919Z,14.2
2017-11-22T11:10:54.595Z,14.5
2017-11-22T11:11:56.294Z,16.0
2017-11-22T11:12:57.977Z,14.0
2017-11-22T11:13:59.643Z,14.0
2017-11-22T11:15:01.308Z,15.5
2017-11-22T11:16:02.964Z,15.3
2017-11-22T11:17:04.626Z,15.2
2017-11-22T11:18:06.288Z,15.7
2017-11-22T11:19:07.957Z,13.5
2017-11-22T11:20:09.631Z,14.1
2017-11-22T11:21:11.293Z,15.0
2017-11-22T11:22:12.954Z,14.4
2017-11-22T11:23:14.629Z,13.9
2017-11-22T11:24:16.306Z,15.6
2017-11-22T11:25:17.985Z,14.7
2017-11-22T11:26:19.645Z,14.8
2017-11-22T11:27:21.329Z,15.3
2017-11-22T11:28:23.003Z,14.7
2017-11-22T11:29:24.667Z,14.7
2017-11-22T11:30:26.358Z,12.7
2017-11-22T11:31:28.028Z,13.4
2017-11-22T11:32:29.694Z,13.3
2017-11-22T11:33:46.068Z,12.7
2017-11-22T11:34:50.879Z,12.6
2017-11-22T11:35:55.662Z,12.6
2017-11-22T11:36:59.055Z,11.3
2017-11-22T11:38:02.359Z,12.0
2017-11-22T11:39:05.486Z,12.1
2017-11-22T11:40:08.613Z,11.9
2017-11-22T11:41:11.588Z,13.1
2017-11-22T11:42:15.452Z,13.1
2017-11-22T11:43:18.863Z,11.5
2017-11-22T11:44:22.355Z,12.6
2017-11-22T11:45:26.068Z,12.0
2017-11-22T11:46:28.950Z,11.8
2017-11-22T11:47:32.241Z,12.4
2017-11-22T11:48:35.088Z,12.5
2017-11-22T11:49:38.749Z,11.9
2017-11-22T11:50:42.060Z,12.0
2017-11-22T11:51:45.909Z,13.5
2017-11-22T11:52:49.474Z,13.7
2017-11-22T11:53:52.460Z,13.6
2017-11-22T11:54:56.301Z,12.3
2017-11-22T11:55:59.607Z,12.3
2017-11-22T11:57:03.811Z,12.7
2017-11-22T11:58:06.951Z,12.7
2017-11-22T11:59:10.233Z,12.6
2017-11-22T12:00:13.762Z,12.9
2017-11-22T12:01:15.975Z,13.3
2017-11-22T12:02:19.651Z,13.7
2017-11-22T12:03:33.124Z,14.2
2017-11-22T12:04:48.059Z,13.1
2017-11-22T12:06:00.466Z,12.3
2017-11-22T12:07:11.569Z,12.6
2017-11-22T12:08:22.672Z,13.1
2017-11-22T12:09:35.379Z,12.4
2017-11-22T12:11:46.340Z,11.9
2017-11-22T12:12:47.988Z,11.6
2017-11-22T12:13:49.661Z,10.9
2017-11-22T12:14:51.328Z,11.2
2017-11-22T12:15:52.991Z,11.4
2017-11-22T12:16:54.669Z,11.2
2017-11-22T12:17:56.337Z,11.3
2017-11-22T12:18:58.007Z,11.4
2017-11-22T12:19:59.669Z,11.5
2017-11-22T12:21:01.349Z,10.5
2017-11-22T12:22:03.004Z,11.4
2017-11-22T12:23:04.671Z,12.0
2017-11-22T12:24:06.392Z,12.0
2017-11-22T12:25:08.085Z,11.6
2017-11-22T12:26:09.887Z,11.1
2017-11-22T12:27:11.548Z,12.0
2017-11-22T12:28:13.204Z,12.3
2017-11-22T12:29:14.870Z,12.5
2017-11-22T12:30:16.637Z,11.7
2017-11-22T12:31:18.309Z,12.0
2017-11-22T12:32:19.977Z,11.2
2017-11-22T12:33:21.637Z,10.7
2017-11-22T12:34:23.308Z,10.5
2017-11-22T12:35:24.973Z,10.8
2017-11-22T12:36:26.630Z,10.5
2017-11-22T12:37:28.296Z,11.1
2017-11-22T12:38:29.957Z,10.7
2017-11-22T12:39:31.705Z,9.9
2017-11-22T12:40:33.382Z,10.6
2017-11-22T12:41:35.042Z,10.6
2017-11-22T12:42:42.216Z,10.9
2017-11-22T12:43:45.231Z,10.2
2017-11-22T12:44:48.528Z,10.2
2017-11-22T12:45:52.291Z,10.6
2017-11-22T12:46:56.154Z,11.2
2017-11-22T12:47:59.820Z,9.7
2017-11-22T12:49:03.407Z,9.7
2017-11-22T12:50:06.466Z,9.3
2017-11-22T12:51:11.377Z,10.2
2017-11-22T12:52:14.970Z,9.6
2017-11-22T12:53:18.140Z,10.1
2017-11-22T12:54:20.940Z,10.6
2017-11-22T12:55:23.976Z,9.4
2017-11-22T12:56:26.344Z,9.7
2017-11-22T12:57:33.699Z,9.3
2017-11-22T12:58:36.642Z,9.0
2017-11-22T12:59:39.824Z,8.3
2017-11-22T13:00:43.379Z,8.7
2017-11-22T13:01:47.664Z,8.9
2017-11-22T13:02:50.811Z,8.8
2017-11-22T13:03:54.089Z,9.3
2017-11-22T13:05:06.867Z,9.2
2017-11-22T13:06:17.084Z,10.4
2017-11-22T13:07:27.650Z,10.3
2017-11-22T13:08:38.679Z,9.5
2017-11-22T13:09:48.646Z,9.9
2017-11-22T13:10:55.025Z,9.7
2017-11-22T13:12:04.797Z,10.1
2017-11-22T13:13:17.435Z,9.7
2017-11-22T13:14:19.111Z,10.6
2017-11-22T13:15:32.258Z,9.1
2017-11-22T13:16:54.647Z,9.5
2017-11-22T13:17:56.443Z,9.3
2017-11-22T13:18:58.183Z,8.8
2017-11-22T13:19:59.986Z,9.1
2017-11-22T13:21:01.736Z,8.6
2017-11-22T13:22:03.581Z,10.3
2017-11-22T13:23:05.348Z,9.4
2017-11-22T13:24:07.167Z,9.6
2017-11-22T13:25:08.882Z,9.9
2017-11-22T13:26:10.658Z,10.7
2017-11-22T13:27:12.410Z,9.9
2017-11-22T13:28:14.223Z,9.9
2017-11-22T13:29:15.962Z,9.9
2017-11-22T13:30:17.804Z,10.1
2017-11-22T13:31:19.548Z,10.3
2017-11-22T13:32:21.303Z,8.6
2017-11-22T13:33:23.120Z,10.0
2017-11-22T13:34:24.882Z,11.0
2017-11-22T13:35:26.707Z,11.3
2017-11-22T13:36:28.450Z,9.7
2017-11-22T13:37:30.282Z,9.2
2017-11-22T13:38:32.050Z,9.6
2017-11-22T13:39:33.901Z,8.9
2017-11-22T13:40:35.665Z,8.5
2017-11-22T13:41:37.373Z,9.2
2017-11-22T13:42:39.075Z,8.8
2017-11-22T13:43:40.869Z,8.9
2017-11-22T13:44:42.575Z,8.4
2017-11-22T13:45:44.316Z,8.5
2017-11-22T13:46:46.196Z,9.4
2017-11-22T13:47:47.957Z,9.3